Terminal Aerodrome Forecast
Issued by NWS Wakefield, VA

Home | Current Version | Previous Version | Text Only | Print | Product List | Glossary On
Versions: 1 2 3 4 5 6 7 8 9 10 11 12
000
FTUS41 KAKQ 291700
TAFRIC
TAF
KRIC 291739Z 2918/3018 05007KT P6SM FEW050
     FM292200 10005KT P6SM SCT050 BKN150
     FM300700 13003KT P6SM BKN025=

USA.gov is the U.S. government's official web portal to all federal, state and local government web resources and services.